Time;durP1;ratioP1;P1;durP2;ratioP2;P2;SDS_P1;SDS_P2;PMS_P1;PMS_P2;Temp;Humidity;BMP_temperature;BMP_pressure;BME280_temperature;BME280_humidity;BME280_pressure;Samples;Min_cycle;Max_cycle;Signal;HPM_P1;HPM_P2
2022/05/02 00:00:48;;;;;;;52.40;20.77;;;;;;;12.27;100.00;62114.09;5094482;28;20627;-72
2022/05/02 00:03:15;;;;;;;36.57;15.33;;;;;;;12.31;100.00;62116.38;5094557;28;20200;-74
2022/05/02 00:05:42;;;;;;;39.57;14.97;;;;;;;12.24;100.00;62106.28;5094435;28;20601;-73
2022/05/02 00:08:09;;;;;;;32.20;14.87;;;;;;;11.58;100.00;62032.91;5094717;28;20263;-73
2022/05/02 00:10:37;;;;;;;27.53;12.60;;;;;;;11.77;100.00;62063.53;5094592;28;20254;-73
2022/05/02 00:13:06;;;;;;;25.27;11.83;;;;;;;12.37;100.00;62125.34;5094605;28;20199;-71
2022/05/02 00:15:33;;;;;;;18.83;10.67;;;;;;;12.31;100.00;62115.81;5094378;28;20200;-73
2022/05/02 00:18:00;;;;;;;22.20;11.07;;;;;;;11.65;100.00;62045.53;5094472;28;20287;-74
2022/05/02 00:20:29;;;;;;;16.70;7.63;;;;;;;12.32;100.00;62117.44;5094256;28;20617;-72
2022/05/02 00:22:56;;;;;;;17.07;8.70;;;;;;;12.26;100.00;62111.00;5094195;28;20286;-73
2022/05/02 00:25:24;;;;;;;20.83;8.00;;;;;;;12.27;100.00;62112.06;5094047;28;20284;-72
2022/05/02 00:27:51;;;;;;;10.87;5.50;;;;;;;11.55;100.00;62030.22;5094175;28;20660;-71
2022/05/02 00:30:20;;;;;;;7.37;5.50;;;;;;;12.32;100.00;62114.88;5094644;28;20196;-73
2022/05/02 00:32:47;;;;;;;7.67;5.13;;;;;;;12.45;100.00;62133.94;5094114;28;20379;-73
2022/05/02 00:35:14;;;;;;;7.47;5.30;;;;;;;11.86;100.00;62076.28;5094193;28;20214;-73
2022/05/02 00:37:42;;;;;;;11.27;7.07;;;;;;;12.48;100.00;62134.59;5094035;28;20247;-72
2022/05/02 00:40:12;;;;;;;31.97;13.73;;;;;;;12.50;100.00;62136.75;5094092;28;20332;-74
2022/05/02 00:42:39;;;;;;;22.43;11.30;;;;;;;12.34;100.00;62119.03;5093818;28;20252;-72
2022/05/02 00:45:07;;;;;;;11.97;6.73;;;;;;;12.40;100.00;62120.91;5086195;28;20231;-73
2022/05/02 00:47:36;;;;;;;5.20;4.00;;;;;;;11.90;100.00;62072.38;5093849;28;20200;-72
2022/05/02 00:50:05;;;;;;;7.73;4.00;;;;;;;11.65;100.00;62045.53;5093823;28;20230;-73
2022/05/02 00:52:32;;;;;;;5.17;3.23;;;;;;;12.04;100.00;62087.38;5093798;28;20670;-73
2022/05/02 00:55:00;;;;;;;4.20;3.70;;;;;;;12.30;100.00;62112.72;5093599;28;20200;-71
2022/05/02 00:57:27;;;;;;;4.47;3.53;;;;;;;12.23;100.00;62107.25;5093702;28;20206;-73
2022/05/02 00:59:54;;;;;;;4.93;4.00;;;;;;;12.02;100.00;62084.69;5093063;28;20658;-74
2022/05/02 01:02:20;;;;;;;4.50;3.60;;;;;;;12.10;100.00;62095.84;5093422;28;20200;-73
2022/05/02 01:04:49;;;;;;;5.10;3.70;;;;;;;12.04;100.00;62086.84;5093454;28;20199;-71
2022/05/02 01:07:19;;;;;;;5.83;3.73;;;;;;;12.09;100.00;62092.75;5093360;28;20200;-71
2022/05/02 01:09:47;;;;;;;3.60;3.30;;;;;;;12.19;100.00;62103.50;5093505;28;20261;-73
2022/05/02 01:12:16;;;;;;;7.43;3.87;;;;;;;12.16;100.00;62097.69;5093426;28;20231;-73
2022/05/02 01:14:43;;;;;;;3.80;3.40;;;;;;;12.20;100.00;62107.09;5093373;28;20207;-72
2022/05/02 01:17:10;;;;;;;5.13;3.27;;;;;;;12.10;100.00;62096.38;5093195;28;20257;-72
2022/05/02 01:19:37;;;;;;;5.03;3.10;;;;;;;12.07;100.00;62090.06;5092758;28;20694;-72
2022/05/02 01:22:07;;;;;;;4.83;3.37;;;;;;;12.00;100.00;62085.09;5093033;28;20196;-73
2022/05/02 01:24:39;;;;;;;5.30;3.67;;;;;;;11.96;100.00;62076.25;5092944;28;20215;-72
2022/05/02 01:27:08;;;;;;;5.30;3.80;;;;;;;11.94;100.00;62078.66;5093022;28;20191;-72
2022/05/02 01:29:37;;;;;;;5.60;3.63;;;;;;;11.87;100.00;62069.69;5093078;28;20643;-74
2022/05/02 01:32:07;;;;;;;6.70;3.77;;;;;;;11.02;100.00;61981.06;5092864;28;20285;-72
2022/05/02 01:34:34;;;;;;;4.67;3.60;;;;;;;11.80;100.00;62061.63;5092745;28;20674;-73
2022/05/02 01:37:02;;;;;;;5.63;3.83;;;;;;;11.78;100.00;62059.50;5092564;28;20238;-73
2022/05/02 01:39:31;;;;;;;6.50;4.07;;;;;;;11.70;100.00;62053.47;5092846;28;20743;-73
2022/05/02 01:42:01;;;;;;;6.57;3.83;;;;;;;10.93;100.00;61969.41;5092991;28;20245;-72
2022/05/02 01:44:28;;;;;;;6.03;3.80;;;;;;;11.54;100.00;62033.72;5093276;28;20199;-72
2022/05/02 01:46:55;;;;;;;5.60;3.00;;;;;;;11.48;100.00;62027.28;5092672;28;20318;-73
2022/05/02 01:49:22;;;;;;;6.70;4.07;;;;;;;11.45;100.00;62024.09;5093373;28;20666;-72
2022/05/02 01:51:50;;;;;;;5.20;3.67;;;;;;;11.45;100.00;62024.09;5096342;28;20260;-73
2022/05/02 01:54:18;;;;;;;5.67;4.70;;;;;;;11.33;100.00;62011.22;5093183;28;20199;-72
2022/05/02 01:56:46;;;;;;;8.73;4.37;;;;;;;11.42;100.00;62018.84;5092713;28;20276;-72
2022/05/02 01:59:13;;;;;;;5.60;4.23;;;;;;;11.46;100.00;62025.69;5092179;28;20252;-72
2022/05/02 02:01:40;;;;;;;6.17;4.87;;;;;;;11.44;100.00;62025.56;5092341;28;20199;-72
2022/05/02 02:05:48;;;;;;;8.20;5.20;;;;;;;11.46;100.00;62025.16;5092145;28;20196;-73
2022/05/02 02:06:53;;;;;;;5.57;4.73;;;;;;;11.34;100.00;62012.28;5091964;28;20237;-72
2022/05/02 02:09:20;;;;;;;6.70;5.40;;;;;;;10.71;100.00;61948.38;5092047;28;20203;-74
2022/05/02 02:11:49;;;;;;;8.30;6.20;;;;;;;10.82;100.00;61957.63;5091191;28;20204;-73
2022/05/02 02:14:16;;;;;;;6.40;4.83;;;;;;;11.26;100.00;62003.72;5092135;28;20192;-72
2022/05/02 02:16:44;;;;;;;6.30;4.67;;;;;;;11.20;100.00;62000.38;5092226;28;20200;-72
2022/05/02 02:19:11;;;;;;;6.10;4.70;;;;;;;11.25;100.00;62002.66;5092237;28;20199;-73
2022/05/02 02:21:38;;;;;;;6.80;4.90;;;;;;;11.26;100.00;62003.72;5092249;28;20276;-72
2022/05/02 02:24:05;;;;;;;5.83;4.90;;;;;;;11.33;100.00;62013.78;5091760;28;20215;-73
2022/05/02 02:26:32;;;;;;;7.20;5.07;;;;;;;11.15;100.00;61989.91;5092069;28;20219;-72
2022/05/02 02:29:00;;;;;;;5.60;4.97;;;;;;;10.19;100.00;61890.13;5091820;28;20634;-74
2022/05/02 02:31:27;;;;;;;6.23;4.80;;;;;;;11.19;100.00;61996.22;5092370;28;20499;-72
2022/05/02 02:33:54;;;;;;;6.47;4.93;;;;;;;11.12;100.00;61986.16;5091810;28;21011;-72
2022/05/02 02:36:21;;;;;;;7.63;4.50;;;;;;;11.06;100.00;61985.38;5092112;28;20355;-73
2022/05/02 02:38:48;;;;;;;6.50;4.97;;;;;;;11.20;100.00;61994.72;5091824;28;20192;-72
2022/05/02 02:41:16;;;;;;;5.93;4.63;;;;;;;10.41;100.00;61911.16;5091744;28;20276;-71
2022/05/02 02:43:43;;;;;;;9.43;4.90;;;;;;;11.01;100.00;61978.00;5091830;28;20449;-72
2022/05/02 02:46:11;;;;;;;8.20;4.47;;;;;;;11.17;100.00;61994.06;5091786;28;20227;-72
2022/05/02 02:48:38;;;;;;;7.80;4.90;;;;;;;11.21;100.00;61998.38;5091992;28;20261;-73
2022/05/02 02:51:05;;;;;;;9.97;4.77;;;;;;;11.05;100.00;61982.28;5091695;28;20255;-72
2022/05/02 02:53:32;;;;;;;7.27;4.40;;;;;;;11.01;100.00;61980.00;5091762;28;20294;-73
2022/05/02 02:55:58;;;;;;;13.03;5.43;;;;;;;11.04;100.00;61980.66;5091788;28;20626;-72
2022/05/02 02:58:25;;;;;;;6.27;4.60;;;;;;;11.02;100.00;61978.53;5091671;28;20308;-73
2022/05/02 03:00:53;;;;;;;11.47;4.90;;;;;;;11.12;100.00;61988.69;5091667;28;20967;-72
2022/05/02 03:03:21;;;;;;;32.00;14.50;;;;;;;11.14;100.00;61990.84;5091609;28;20743;-71
2022/05/02 03:06:03;;;;;;;7.40;5.70;;;;;;;10.95;100.00;61973.56;5091496;28;20693;-73
2022/05/02 03:08:34;;;;;;;9.13;4.60;;;;;;;10.91;100.00;61971.81;5091631;28;20434;-72
2022/05/02 03:11:01;;;;;;;8.07;5.17;;;;;;;10.91;100.00;61966.72;5091379;28;20448;-72
2022/05/02 03:13:28;;;;;;;13.17;4.97;;;;;;;10.88;100.00;61958.97;5091431;28;20675;-72
2022/05/02 03:15:55;;;;;;;6.83;4.90;;;;;;;10.72;100.00;61943.84;5091364;28;20200;-71
2022/05/02 03:18:24;;;;;;;8.70;5.13;;;;;;;10.65;100.00;61941.97;5091192;28;20195;-73
2022/05/02 03:20:51;;;;;;;9.23;4.97;;;;;;;10.54;100.00;61929.66;5091238;28;20196;-72
2022/05/02 03:23:17;;;;;;;6.77;5.17;;;;;;;10.52;100.00;61928.03;5092866;28;20273;-72
2022/05/02 03:25:44;;;;;;;9.93;6.03;;;;;;;10.41;100.00;61911.16;5095483;28;20238;-72
2022/05/02 03:28:11;;;;;;;19.33;8.40;;;;;;;10.28;100.00;61899.78;5095286;28;20442;-71
2022/05/02 03:30:39;;;;;;;12.53;6.70;;;;;;;10.19;100.00;61890.69;5095823;28;20499;-71
2022/05/02 03:33:06;;;;;;;13.90;5.77;;;;;;;10.00;100.00;61869.78;5095289;28;20534;-72
2022/05/02 03:35:36;;;;;;;7.47;5.13;;;;;;;9.98;100.00;61867.66;5095092;28;20199;-73
2022/05/02 03:38:03;;;;;;;8.77;5.60;;;;;;;9.98;100.00;61867.66;5095251;28;20438;-73
2022/05/02 03:40:30;;;;;;;10.13;6.13;;;;;;;9.94;100.00;61860.81;5095510;28;20802;-72
2022/05/02 03:42:57;;;;;;;9.50;5.43;;;;;;;9.96;100.00;61865.50;5095127;28;20514;-73
2022/05/02 03:45:25;;;;;;;10.00;6.17;;;;;;;9.94;100.00;61868.44;5094919;28;20450;-73
2022/05/02 03:47:51;;;;;;;8.27;5.00;;;;;;;10.05;100.00;61875.13;5094795;28;20441;-72
2022/05/02 03:50:20;;;;;;;9.40;5.23;;;;;;;10.06;100.00;61876.22;5094770;28;20561;-73
2022/05/02 03:52:48;;;;;;;8.53;4.97;;;;;;;10.12;100.00;61880.09;5094807;28;20433;-72
2022/05/02 03:55:15;;;;;;;6.63;5.20;;;;;;;10.07;100.00;61880.34;5094761;28;20492;-73
2022/05/02 03:57:42;;;;;;;11.23;5.70;;;;;;;10.13;100.00;61884.25;5094587;28;20466;-72
2022/05/02 04:00:10;;;;;;;6.67;4.43;;;;;;;9.78;100.00;61848.78;5094668;28;20666;-72
2022/05/02 04:02:37;;;;;;;7.70;5.53;;;;;;;10.01;100.00;61868.31;5094752;28;20195;-72
2022/05/02 04:05:05;;;;;;;11.53;5.97;;;;;;;10.09;100.00;61881.97;5094750;28;20604;-72
2022/05/02 04:07:32;;;;;;;11.07;5.80;;;;;;;9.99;100.00;61868.69;5094519;28;20489;-73
2022/05/02 04:10:00;;;;;;;7.33;5.23;;;;;;;9.92;100.00;61861.22;5094402;28;21020;-72
2022/05/02 04:12:27;;;;;;;11.83;5.63;;;;;;;9.76;100.00;61844.09;5093482;28;20456;-71
2022/05/02 04:14:54;;;;;;;9.30;5.57;;;;;;;9.98;100.00;61865.09;5094732;28;20453;-72
2022/05/02 04:17:20;;;;;;;9.97;5.30;;;;;;;9.99;100.00;61866.16;5094441;28;20968;-71
2022/05/02 04:19:47;;;;;;;13.43;5.87;;;;;;;9.94;100.00;61865.91;5094690;28;20510;-72
2022/05/02 04:22:14;;;;;;;9.90;5.50;;;;;;;10.01;100.00;61875.94;5094287;28;20959;-71
2022/05/02 04:24:40;;;;;;;9.80;5.60;;;;;;;9.93;100.00;61862.28;5094436;28;20542;-74
2022/05/02 04:27:09;;;;;;;13.00;5.90;;;;;;;10.03;100.00;61876.06;5094081;28;20477;-73
2022/05/02 04:29:35;;;;;;;9.97;5.17;;;;;;;10.10;100.00;61875.41;5094503;28;20449;-73
2022/05/02 04:32:03;;;;;;;9.30;5.20;;;;;;;10.23;100.00;61894.41;5093611;28;20478;-72
2022/05/02 04:34:30;;;;;;;8.30;4.77;;;;;;;10.18;100.00;61892.16;5092862;28;20476;-73
2022/05/02 04:36:57;;;;;;;7.40;4.73;;;;;;;10.46;100.00;61916.53;5094010;28;20445;-73
2022/05/02 04:39:24;;;;;;;9.93;4.00;;;;;;;10.54;100.00;61929.66;5094034;28;20446;-73
2022/05/02 04:41:50;;;;;;;15.40;5.00;;;;;;;10.59;100.00;61932.97;5093750;28;20449;-72
2022/05/02 04:44:19;;;;;;;8.53;4.70;;;;;;;10.69;100.00;61943.69;5093668;28;20565;-72
2022/05/02 04:46:45;;;;;;;13.60;4.60;;;;;;;10.75;100.00;61950.13;5093405;28;20489;-72
2022/05/02 04:49:12;;;;;;;6.93;4.90;;;;;;;10.69;100.00;61943.69;5093398;28;20960;-73
2022/05/02 04:51:39;;;;;;;6.20;4.50;;;;;;;10.71;100.00;61945.84;5093620;28;20199;-72
2022/05/02 04:54:06;;;;;;;7.17;4.93;;;;;;;11.00;100.00;61982.03;5093720;28;20223;-73
2022/05/02 04:56:33;;;;;;;8.53;5.27;;;;;;;11.24;100.00;62002.09;5093702;28;20453;-73
2022/05/02 04:59:00;;;;;;;8.63;4.80;;;;;;;11.23;100.00;62001.03;5093420;28;20670;-71
2022/05/02 05:01:28;;;;;;;10.03;4.80;;;;;;;11.24;100.00;62001.56;5093429;28;20233;-73
2022/05/02 05:03:55;;;;;;;7.10;4.87;;;;;;;11.41;100.00;62020.31;5093408;28;20588;-72
2022/05/02 05:06:22;;;;;;;10.43;5.50;;;;;;;11.14;100.00;61988.31;5093571;28;20224;-71
2022/05/02 05:08:50;;;;;;;8.77;5.00;;;;;;;11.52;100.00;62029.56;5093299;28;20241;-73
2022/05/02 05:11:31;;;;;;;5.33;4.03;;;;;;;11.89;100.00;62076.41;5093304;28;20229;-72
2022/05/02 05:17:13;;;;;;;5.37;3.60;;;;;;;12.15;100.00;62096.09;5093301;28;20210;-71
2022/05/02 05:20:05;;;;;;;7.10;4.23;;;;;;;12.41;100.00;62127.09;5093393;28;20261;-73
2022/05/02 05:23:04;;;;;;;5.00;3.80;;;;;;;12.57;100.00;62146.81;5088848;28;20261;-72
2022/05/02 05:25:42;;;;;;;7.23;4.47;;;;;;;12.42;100.00;62137.84;5093097;28;20203;-72
2022/05/02 05:28:41;;;;;;;5.37;4.00;;;;;;;12.82;100.00;62170.56;5093009;28;20616;-73
2022/05/02 05:31:24;;;;;;;5.40;3.60;;;;;;;13.06;100.00;62203.50;5093205;28;20200;-72
2022/05/02 05:34:04;;;;;;;12.80;4.40;;;;;;;12.63;100.00;62148.16;5096299;28;20231;-73
2022/05/02 05:36:41;;;;;;;6.63;4.40;;;;;;;13.36;100.00;62228.03;5097204;28;20276;-71
2022/05/02 05:39:16;;;;;;;12.00;4.30;;;;;;;13.61;100.00;62254.34;5092694;28;20715;-73
2022/05/02 05:41:59;;;;;;;4.23;3.70;;;;;;;13.81;100.00;62276.38;5092981;28;20195;-72
2022/05/02 05:44:34;;;;;;;4.70;3.53;;;;;;;13.58;100.00;62249.13;5092743;28;20696;-72
2022/05/02 05:47:13;;;;;;;7.67;4.00;;;;;;;13.44;100.00;62241.75;5092097;28;20234;-73
2022/05/02 05:49:54;;;;;;;5.97;3.63;;;;;;;13.65;100.00;62259.19;5092709;28;20252;-72
2022/05/02 05:52:27;;;;;;;10.03;3.80;;;;;;;13.89;100.00;62285.00;5092319;28;20200;-74
2022/05/02 05:55:05;;;;;;;5.07;3.57;;;;;;;14.06;100.00;62303.28;5092920;28;20276;-73
2022/05/02 05:57:40;;;;;;;5.67;4.07;;;;;;;14.10;100.00;62307.03;5092585;28;20200;-72
2022/05/02 06:00:09;;;;;;;8.20;3.83;;;;;;;14.20;100.00;62320.34;5092471;28;20289;-73
2022/05/02 06:03:07;;;;;;;5.30;4.00;;;;;;;14.30;100.00;62331.66;5092271;28;20295;-71
2022/05/02 06:05:40;;;;;;;6.73;4.17;;;;;;;14.22;100.00;62320.47;5092078;28;20264;-72
2022/05/02 06:08:10;;;;;;;8.97;3.87;;;;;;;14.47;100.00;62351.44;5092122;28;20315;-73
2022/05/02 06:10:40;;;;;;;11.00;4.23;;;;;;;14.42;100.00;62340.91;5092011;28;20196;-73
2022/05/02 06:13:08;;;;;;;5.90;3.70;;;;;;;14.34;100.00;62333.41;5092267;28;20210;-72
2022/05/02 06:18:31;;;;;;;8.07;4.17;;;;;;;14.38;100.00;62334.59;5091966;28;20532;-71
2022/05/02 06:21:02;;;;;;;8.07;4.40;;;;;;;14.36;100.00;62335.53;5092317;28;20635;-73
2022/05/02 06:23:33;;;;;;;10.07;4.10;;;;;;;14.61;100.00;62363.91;5091814;28;20211;-72
2022/05/02 06:26:01;;;;;;;8.03;4.63;;;;;;;14.69;100.00;62369.97;5091772;28;20613;-72
2022/05/02 06:28:31;;;;;;;16.33;5.30;;;;;;;14.89;100.00;62391.47;5091798;28;20618;-73
2022/05/02 06:31:01;;;;;;;10.13;5.03;;;;;;;14.83;100.00;62385.03;5092096;28;20298;-72
2022/05/02 06:33:30;;;;;;;12.70;4.43;;;;;;;14.54;100.00;62359.47;5092098;28;20232;-73
2022/05/02 06:36:19;;;;;;;11.93;4.63;;;;;;;14.64;100.00;62370.25;5091824;28;20233;-73
2022/05/02 06:38:52;;;;;;;10.93;5.17;;;;;;;15.66;100.00;62474.34;5078888;28;20638;-74
2022/05/02 06:41:37;;;;;;;11.97;6.00;;;;;;;15.35;100.00;62440.97;5091779;28;20192;-72
2022/05/02 06:44:12;;;;;;;7.70;4.80;;;;;;;14.17;100.00;62317.66;5091681;28;20571;-71
2022/05/02 06:46:45;;;;;;;9.60;4.97;;;;;;;15.19;100.00;62426.31;5091708;28;20276;-72
2022/05/02 06:49:13;;;;;;;5.47;4.43;;;;;;;15.41;100.00;62452.56;5091578;28;20681;-72
2022/05/02 06:51:46;;;;;;;6.60;4.30;;;;;;;15.59;100.00;62464.25;5091555;28;20283;-74
2022/05/02 06:54:27;;;;;;;4.83;4.10;;;;;;;15.54;100.00;62464.00;5091583;28;20199;-71
2022/05/02 06:57:03;;;;;;;6.70;4.60;;;;;;;15.59;100.00;62464.25;5091158;28;20727;-73
2022/05/02 06:59:40;;;;;;;7.93;4.60;;;;;;;15.75;100.00;62483.50;5091812;28;20256;-73
2022/05/02 07:02:39;;;;;;;6.60;3.47;;;;;;;15.30;100.00;62437.59;5094008;28;20199;-73
2022/05/02 07:05:11;;;;;;;7.10;4.13;;;;;;;15.11;100.00;62420.78;5091562;28;20268;-71
2022/05/02 07:07:58;;;;;;;6.93;4.07;;;;;;;15.17;100.00;62421.59;5091510;28;20231;-73
2022/05/02 07:10:32;;;;;;;4.80;3.07;;;;;;;15.13;100.00;62419.88;5091240;28;20191;-73
2022/05/02 07:13:12;;;;;;;9.00;4.17;;;;;;;15.61;100.00;62473.56;5091291;28;20191;-72
2022/05/02 07:15:45;;;;;;;6.73;4.13;;;;;;;15.62;100.00;62472.63;5091441;28;20227;-73
2022/05/02 07:18:26;;;;;;;5.03;3.97;;;;;;;15.69;100.00;62477.06;5091203;28;20297;-71
2022/05/02 07:21:01;;;;;;;4.10;3.57;;;;;;;15.79;100.00;62488.34;5091286;28;20751;-73
2022/05/02 07:23:49;;;;;;;6.00;3.87;;;;;;;16.29;100.00;62546.81;5091227;28;20258;-72
2022/05/02 07:26:20;;;;;;;6.13;4.30;;;;;;;16.40;100.00;62555.56;5091268;28;20274;-73
2022/05/02 07:28:49;;;;;;;8.10;4.00;;;;;;;16.60;100.00;62577.13;5091212;28;20352;-72
2022/05/02 07:31:19;;;;;;;6.33;3.40;;;;;;;16.30;100.00;62537.59;5091033;28;20210;-72
2022/05/02 07:33:49;;;;;;;8.30;3.83;;;;;;;16.34;100.00;62549.09;5091516;28;20771;-72
2022/05/02 07:36:18;;;;;;;5.03;3.70;;;;;;;16.61;100.00;62575.63;5091457;28;20200;-73
2022/05/02 07:38:49;;;;;;;12.80;4.80;;;;;;;16.49;100.00;62567.84;5090966;28;20195;-72
2022/05/02 07:41:25;;;;;;;8.60;4.40;;;;;;;16.54;100.00;62568.63;5090947;28;20200;-73
2022/05/02 07:43:57;;;;;;;5.57;4.77;;;;;;;16.77;100.00;62590.28;5091082;28;20609;-73
2022/05/02 07:46:27;;;;;;;13.17;5.07;;;;;;;16.39;100.00;62549.31;5091277;28;20199;-73
2022/05/02 07:48:56;;;;;;;9.57;4.90;;;;;;;16.21;100.00;62535.06;5090791;28;20284;-74
2022/05/02 07:51:24;;;;;;;7.77;5.13;;;;;;;15.81;100.00;62490.50;5090935;28;20201;-74
2022/05/02 07:53:52;;;;;;;9.70;5.67;;;;;;;15.31;100.00;62434.09;5090694;28;20195;-73
2022/05/02 07:56:23;;;;;;;10.13;5.40;;;;;;;15.75;100.00;62483.50;5090644;28;20196;-74
2022/05/02 07:58:53;;;;;;;6.90;5.20;;;;;;;15.73;100.00;62483.94;5090849;28;20249;-73
2022/05/02 08:01:21;;;;;;;8.17;6.03;;;;;;;15.99;100.00;62515.03;5090970;28;20199;-71
2022/05/02 08:03:48;;;;;;;7.53;5.83;;;;;;;15.87;100.00;62499.00;5090911;28;20258;-73
2022/05/02 08:06:29;;;;;;;11.07;6.20;;;;;;;15.93;100.00;62503.44;5090736;28;20244;-74
2022/05/02 08:09:07;;;;;;;10.37;6.40;;;;;;;15.99;100.00;62507.31;5090680;28;20644;-72
2022/05/02 08:11:46;;;;;;;14.67;7.50;;;;;;;16.13;100.00;62521.31;5094441;28;20195;-74
2022/05/02 08:14:17;;;;;;;12.73;7.73;;;;;;;16.34;100.00;62547.03;5094483;28;20236;-72
2022/05/02 08:16:59;;;;;;;11.33;8.17;;;;;;;16.48;100.00;62559.56;5094649;28;20195;-73
2022/05/02 08:19:40;;;;;;;11.27;7.67;;;;;;;16.31;100.00;62543.28;5094130;28;20199;-73
2022/05/02 08:28:02;;;;;;;10.93;6.63;;;;;;;16.70;100.00;62583.28;5076331;28;20223;-73
2022/05/02 08:30:33;;;;;;;10.27;6.50;;;;;;;17.02;100.00;62619.28;5094165;28;20208;-73
2022/05/02 08:33:04;;;;;;;9.87;6.37;;;;;;;16.83;100.00;62599.34;5094003;28;20232;-73
2022/05/02 08:35:44;;;;;;;9.13;5.30;;;;;;;16.47;100.00;62561.06;5093964;28;20234;-74
2022/05/02 08:38:23;;;;;;;8.73;5.53;;;;;;;16.83;100.00;62597.31;5093897;28;20203;-73
2022/05/02 08:41:43;;;;;;;9.67;5.53;;;;;;;16.15;100.00;62523.47;5093960;28;20203;-73
2022/05/02 08:45:05;;;;;;;11.27;6.30;;;;;;;16.99;100.00;62614.00;5036280;28;20200;-74
2022/05/02 08:48:15;;;;;;;11.13;5.43;;;;;;;17.25;100.00;62646.63;5016848;28;20282;-73
2022/05/02 08:51:24;;;;;;;10.80;6.20;;;;;;;17.48;100.00;62666.84;5093555;28;20662;-73
2022/05/02 08:54:19;;;;;;;7.97;5.00;;;;;;;17.16;100.00;62631.78;5054467;28;20658;-74
2022/05/02 08:57:03;;;;;;;13.50;4.73;;;;;;;17.97;100.00;62721.22;5093912;28;20203;-74
2022/05/02 09:00:09;;;;;;;4.87;4.17;;;;;;;17.73;100.00;62693.81;5093464;28;20195;-73
2022/05/02 09:03:16;;;;;;;6.67;5.20;;;;;;;17.18;100.00;62637.06;5080881;28;20195;-74
2022/05/02 09:06:13;;;;;;;16.80;6.27;;;;;;;16.48;100.00;62564.19;5093509;28;20282;-72
2022/05/02 09:09:37;;;;;;;8.57;4.43;;;;;;;16.72;100.00;62587.50;5093138;28;20288;-72
2022/05/02 09:12:49;;;;;;;5.03;4.53;;;;;;;17.28;100.00;62647.31;5045649;28;20199;-74
2022/05/02 09:15:48;;;;;;;8.07;4.30;;;;;;;18.21;100.00;62749.69;5084588;28;20260;-72
2022/05/02 09:18:48;;;;;;;4.83;3.40;;;;;;;18.43;100.00;62770.88;5088395;28;20203;-73
2022/05/02 09:21:28;;;;;;;6.40;3.80;;;;;;;17.92;100.00;62713.25;5089496;28;20662;-74
2022/05/02 09:24:37;;;;;;;5.57;4.40;;;;;;;17.86;100.00;62709.88;5093548;28;20216;-71
2022/05/02 09:27:15;;;;;;;10.60;4.57;;;;;;;18.46;100.00;62774.13;5072298;28;20264;-73
2022/05/02 09:30:27;;;;;;;10.03;4.03;;;;;;;18.31;100.00;62757.91;5092980;28;20244;-73
2022/05/02 09:33:10;;;;;;;7.33;4.03;;;;;;;17.70;100.00;62693.16;5093244;28;20235;-74
2022/05/02 09:35:50;;;;;;;5.93;3.40;;;;;;;17.64;100.00;62684.13;5092856;28;20261;-73
2022/05/02 09:38:24;;;;;;;10.23;4.00;;;;;;;18.12;100.00;62732.78;5092446;28;20670;-73
2022/05/02 09:40:59;;;;;;;9.07;3.70;;;;;;;18.35;100.00;62762.75;5092547;28;20667;-73
2022/05/02 09:50:03;;;;;;;9.67;3.60;;;;;;;18.43;100.00;62774.00;5092790;28;20248;-74
2022/05/02 09:52:39;;;;;;;4.77;3.90;;;;;;;17.62;100.00;62684.00;5092251;28;20233;-74
2022/05/02 09:58:35;;;;;;;6.97;3.77;;;;;;;17.57;100.00;62679.13;5049766;28;20683;-73
2022/05/02 10:01:07;;;;;;;6.70;4.37;;;;;;;17.70;100.00;62688.03;5049731;28;20196;-72
2022/05/02 10:03:37;;;;;;;10.53;4.50;;;;;;;17.52;100.00;62675.78;5072306;28;20200;-72
2022/05/02 10:06:08;;;;;;;11.27;5.27;;;;;;;17.50;100.00;62671.59;5092351;28;20199;-73
2022/05/02 10:08:50;;;;;;;5.63;3.70;;;;;;;17.96;100.00;62720.13;5092119;28;20624;-74
2022/05/02 10:11:41;;;;;;;4.60;3.83;;;;;;;17.75;100.00;62697.50;5092015;28;20717;-70
2022/05/02 10:14:30;;;;;;;6.20;4.17;;;;;;;17.49;100.00;62667.94;5092233;28;20252;-73
2022/05/02 10:17:06;;;;;;;5.20;3.90;;;;;;;17.49;100.00;62673.09;5091988;28;20397;-74
2022/05/02 10:19:53;;;;;;;11.57;5.03;;;;;;;17.49;100.00;62670.50;5092036;28;20199;-73
2022/05/02 10:22:31;;;;;;;13.73;5.83;;;;;;;17.73;100.00;62696.41;5092080;28;20253;-74
2022/05/02 10:25:03;;;;;;;5.03;3.10;;;;;;;17.43;100.00;62664.03;5092075;28;20215;-72
2022/05/02 10:27:44;;;;;;;6.27;3.20;;;;;;;17.26;100.00;62645.69;5091780;28;20202;-73
2022/05/02 10:30:13;;;;;;;8.67;2.93;;;;;;;17.60;100.00;62682.38;5091692;28;20276;-73
2022/05/02 10:32:45;;;;;;;4.77;2.63;;;;;;;17.73;100.00;62696.41;5091285;28;20227;-74
2022/05/02 10:35:15;;;;;;;6.47;3.00;;;;;;;17.02;100.00;62619.81;5091937;28;20191;-73
2022/05/02 10:37:51;;;;;;;3.23;2.93;;;;;;;17.61;100.00;62683.44;5092120;28;20199;-74
2022/05/02 10:40:24;;;;;;;3.97;2.80;;;;;;;17.53;100.00;62674.81;5091655;28;20248;-74
2022/05/02 10:42:53;;;;;;;6.23;4.47;;;;;;;17.07;100.00;62625.19;5091661;28;20200;-73
2022/05/02 10:45:19;;;;;;;10.33;3.60;;;;;;;17.28;100.00;62647.84;5091524;28;20252;-72
2022/05/02 10:47:53;;;;;;;5.30;2.70;;;;;;;17.51;100.00;62672.13;5091699;28;20219;-73
2022/05/02 10:50:21;;;;;;;3.40;2.47;;;;;;;17.92;100.00;62708.63;5091558;28;20678;-72
2022/05/02 10:53:14;;;;;;;9.93;3.40;;;;;;;17.72;100.00;62697.38;5091560;28;20199;-74
2022/05/02 10:55:51;;;;;;;7.10;3.97;;;;;;;17.73;100.00;62693.81;5092081;28;20256;-73
2022/05/02 10:58:18;;;;;;;3.57;2.87;;;;;;;17.86;100.00;62709.34;5090434;28;20207;-73
2022/05/02 11:01:03;;;;;;;6.87;3.03;;;;;;;18.08;100.00;62733.09;5091482;28;20662;-73
2022/05/02 11:03:46;;;;;;;6.10;3.10;;;;;;;18.19;100.00;62742.38;5091438;28;20638;-74
2022/05/02 11:06:28;;;;;;;4.50;3.10;;;;;;;18.02;100.00;62726.59;5091592;28;20191;-73
2022/05/02 11:09:02;;;;;;;9.50;3.50;;;;;;;17.77;100.00;62699.66;5091237;28;20227;-73
2022/05/02 11:11:38;;;;;;;7.07;4.30;;;;;;;17.65;100.00;62685.19;5093195;28;20289;-73
2022/05/02 11:14:21;;;;;;;10.43;3.13;;;;;;;17.44;100.00;62662.00;5091772;28;20195;-74
2022/05/02 11:16:56;;;;;;;6.47;3.10;;;;;;;17.82;100.00;62702.44;5091519;28;20195;-73
2022/05/02 11:22:27;;;;;;;8.90;3.10;;;;;;;17.48;100.00;62669.41;5091145;28;20203;-73
2022/05/02 11:25:06;;;;;;;7.80;3.20;;;;;;;17.72;100.00;62692.22;5091156;28;20241;-73
2022/05/02 11:27:47;;;;;;;7.67;3.10;;;;;;;17.73;100.00;62690.69;5091604;28;20260;-73
2022/05/02 11:30:19;;;;;;;3.87;3.13;;;;;;;17.19;100.00;62640.72;5091283;28;20192;-72
2022/05/02 11:33:00;;;;;;;5.60;2.90;;;;;;;16.86;100.00;62605.16;5090951;28;20686;-72
2022/05/02 11:35:30;;;;;;;8.03;3.10;;;;;;;16.55;100.00;62569.16;5091185;28;20264;-74
2022/05/02 11:38:06;;;;;;;5.90;3.30;;;;;;;16.68;100.00;62580.59;5091181;28;20216;-72
2022/05/02 11:40:44;;;;;;;5.57;3.20;;;;;;;16.31;100.00;62543.81;5091548;28;20195;-73
2022/05/02 11:43:11;;;;;;;4.57;3.07;;;;;;;16.08;100.00;62513.38;5090835;28;20191;-73
2022/05/02 11:45:44;;;;;;;4.83;3.43;;;;;;;16.25;100.00;62531.66;5094561;28;20753;-73
2022/05/02 11:48:40;;;;;;;8.17;3.37;;;;;;;16.26;100.00;62535.84;5095076;28;20284;-73
2022/05/02 11:51:08;;;;;;;3.17;2.87;;;;;;;16.26;100.00;62535.84;5094726;28;20568;-73
2022/05/02 11:53:36;;;;;;;8.47;4.23;;;;;;;15.93;100.00;62503.44;5094455;28;20250;-74
2022/05/02 11:56:06;;;;;;;9.97;5.53;;;;;;;15.88;100.00;62498.03;5094487;28;20294;-72
2022/05/02 11:58:43;;;;;;;5.20;4.43;;;;;;;15.57;100.00;62466.69;5094309;28;20204;-73
2022/05/02 12:01:13;;;;;;;7.90;4.30;;;;;;;15.93;100.00;62503.44;5094409;28;20680;-72
2022/05/02 12:03:56;;;;;;;4.73;3.23;;;;;;;16.03;100.00;62514.22;5094534;28;20192;-74
2022/05/02 12:06:32;;;;;;;5.27;3.53;;;;;;;15.83;100.00;62492.66;5094763;28;20271;-72
2022/05/02 12:09:03;;;;;;;4.17;3.67;;;;;;;15.76;100.00;62479.44;5094512;28;20313;-72
2022/05/02 12:11:32;;;;;;;7.43;4.10;;;;;;;15.85;100.00;62494.28;5094512;28;20283;-72
2022/05/02 12:14:01;;;;;;;4.20;3.30;;;;;;;15.79;100.00;62487.81;5094410;28;20635;-73
2022/05/02 12:16:33;;;;;;;3.83;3.40;;;;;;;15.76;100.00;62482.00;5094505;28;20196;-72
2022/05/02 12:19:05;;;;;;;4.90;3.93;;;;;;;15.51;100.00;62458.22;5094619;28;20200;-73